createdAt,value
2023-05-09T00:01:34.728Z,10.27
2023-05-09T00:06:40.469Z,11.27
2023-05-09T00:11:44.265Z,11.60
2023-05-09T00:16:48.605Z,10.50
2023-05-09T00:21:54.277Z,8.93
2023-05-09T00:26:58.734Z,9.10
2023-05-09T00:32:03.122Z,11.27
2023-05-09T00:37:09.072Z,15.17
2023-05-09T00:42:13.467Z,11.47
2023-05-09T00:47:18.043Z,13.70
2023-05-09T00:52:26.039Z,9.87
2023-05-09T00:57:30.670Z,15.30
2023-05-09T01:02:34.470Z,11.90
2023-05-09T01:07:47.728Z,14.37
2023-05-09T01:12:57.801Z,15.60
2023-05-09T01:18:18.876Z,13.93
2023-05-09T01:24:01.033Z,12.57
2023-05-09T01:29:37.684Z,12.53
2023-05-09T01:34:44.965Z,13.60
2023-05-09T01:39:53.687Z,13.73
2023-05-09T01:45:01.375Z,15.33
2023-05-09T01:50:11.156Z,16.40
2023-05-09T01:55:17.256Z,12.27
2023-05-09T02:00:25.944Z,12.50
2023-05-09T02:05:31.996Z,13.30
2023-05-09T02:10:37.220Z,11.60
2023-05-09T02:15:45.620Z,13.13
2023-05-09T02:20:49.706Z,13.17
2023-05-09T02:25:55.115Z,11.83
2023-05-09T02:31:03.605Z,16.50
2023-05-09T02:36:08.901Z,16.47
2023-05-09T02:41:14.850Z,14.10
2023-05-09T02:46:20.543Z,13.70
2023-05-09T02:51:24.585Z,13.83
2023-05-09T02:56:29.265Z,10.07
2023-05-09T03:01:35.102Z,16.67
2023-05-09T03:06:40.316Z,12.80
2023-05-09T03:11:45.673Z,10.77
2023-05-09T03:16:52.447Z,12.83
2023-05-09T03:22:05.886Z,14.97
2023-05-09T03:27:14.873Z,11.20
2023-05-09T03:32:20.785Z,11.73
2023-05-09T03:37:27.097Z,12.33
2023-05-09T03:42:31.822Z,15.13
2023-05-09T03:47:40.777Z,13.13
2023-05-09T03:52:45.424Z,10.27
2023-05-09T03:57:53.054Z,13.67
2023-05-09T04:03:00.374Z,12.87
2023-05-09T04:08:15.477Z,13.93
2023-05-09T04:13:19.345Z,12.93
2023-05-09T04:18:25.672Z,11.40
2023-05-09T04:23:30.884Z,9.03
2023-05-09T04:28:36.800Z,10.33
2023-05-09T04:33:42.817Z,9.50
2023-05-09T04:38:47.729Z,11.47
2023-05-09T04:43:55.985Z,9.13
2023-05-09T04:49:04.842Z,10.80
2023-05-09T04:54:10.899Z,9.43
2023-05-09T04:59:18.112Z,9.47
2023-05-09T05:04:27.479Z,8.97
2023-05-09T05:09:33.974Z,11.37
2023-05-09T05:14:39.964Z,9.13
2023-05-09T05:19:48.558Z,10.50
2023-05-09T05:24:55.040Z,9.00
2023-05-09T05:30:03.360Z,10.10
2023-05-09T05:35:16.423Z,12.80
2023-05-09T05:40:21.691Z,9.87
2023-05-09T05:45:34.985Z,17.27
2023-05-09T05:50:49.132Z,11.03
2023-05-09T05:56:15.182Z,10.13
2023-05-09T06:07:06.059Z,10.43
2023-05-09T06:18:19.384Z,11.63
2023-05-09T06:29:06.074Z,10.07
2023-05-09T06:34:09.645Z,9.40
2023-05-09T06:39:14.461Z,9.57
2023-05-09T06:44:17.894Z,10.93
2023-05-09T06:49:21.313Z,8.87
2023-05-09T06:54:26.463Z,9.17
2023-05-09T06:59:30.289Z,9.97
2023-05-09T07:04:34.322Z,11.47
2023-05-09T07:09:39.262Z,7.90
2023-05-09T07:14:42.919Z,7.57
2023-05-09T07:19:46.327Z,8.93
2023-05-09T07:24:52.045Z,7.90
2023-05-09T07:29:55.578Z,11.27
2023-05-09T07:34:59.517Z,7.77
2023-05-09T07:40:06.127Z,9.77
2023-05-09T07:45:11.079Z,8.47
2023-05-09T07:50:14.897Z,9.20
2023-05-09T07:55:19.843Z,7.30
2023-05-09T08:00:26.059Z,10.57
2023-05-09T08:05:29.701Z,10.30
2023-05-09T08:10:34.940Z,10.10
2023-05-09T08:15:38.753Z,9.57
2023-05-09T08:20:42.672Z,9.90
2023-05-09T08:25:47.968Z,9.77
2023-05-09T08:30:52.140Z,12.30
2023-05-09T08:35:56.759Z,10.87
2023-05-09T08:41:04.877Z,10.20
2023-05-09T08:46:10.664Z,10.33
2023-05-09T08:51:16.052Z,9.20
2023-05-09T08:56:21.591Z,13.40
2023-05-09T09:01:26.885Z,11.17
2023-05-09T09:06:32.360Z,11.23
2023-05-09T09:11:38.927Z,12.53
2023-05-09T09:16:44.968Z,8.60
2023-05-09T09:21:51.162Z,9.17
2023-05-09T09:26:56.025Z,10.00
2023-05-09T09:32:03.793Z,8.50
2023-05-09T09:37:08.170Z,9.27
2023-05-09T09:42:14.207Z,10.70
2023-05-09T09:47:18.027Z,8.07
2023-05-09T09:52:26.107Z,7.93
2023-05-09T09:57:38.440Z,9.50
2023-05-09T10:02:49.536Z,8.30
2023-05-09T10:07:56.218Z,7.83
2023-05-09T10:13:03.308Z,6.57
2023-05-09T10:18:08.704Z,9.20
2023-05-09T10:23:14.360Z,7.67
2023-05-09T10:28:25.415Z,7.77
2023-05-09T10:33:35.810Z,6.60
2023-05-09T10:38:42.955Z,7.13
2023-05-09T10:43:48.051Z,8.87
2023-05-09T10:48:52.608Z,9.20
2023-05-09T10:53:58.004Z,9.17
2023-05-09T10:59:03.542Z,8.57
2023-05-09T11:04:12.878Z,9.40
2023-05-09T11:09:35.574Z,10.47
2023-05-09T11:14:45.944Z,8.87
2023-05-09T11:20:00.348Z,7.07
2023-05-09T11:25:07.484Z,6.80
2023-05-09T11:30:14.946Z,8.40
2023-05-09T11:35:20.394Z,5.33
2023-05-09T11:40:24.534Z,5.77
2023-05-09T11:45:30.759Z,4.23
2023-05-09T11:50:35.110Z,4.57
2023-05-09T11:55:39.593Z,4.80
2023-05-09T12:00:47.583Z,4.83
2023-05-09T12:05:52.433Z,4.43
2023-05-09T12:10:56.013Z,6.90
2023-05-09T12:16:03.796Z,7.27
2023-05-09T12:21:07.886Z,6.50
2023-05-09T12:26:11.742Z,5.70
2023-05-09T12:31:17.824Z,5.70
2023-05-09T12:36:21.605Z,6.10
2023-05-09T12:41:37.127Z,5.00
2023-05-09T12:46:55.143Z,6.33
2023-05-09T12:52:02.986Z,6.67
2023-05-09T12:57:23.043Z,4.83
2023-05-09T13:02:29.161Z,5.83
2023-05-09T13:07:40.357Z,6.67
2023-05-09T13:12:47.155Z,6.33
2023-05-09T13:17:52.778Z,8.93
2023-05-09T13:22:56.206Z,8.30
2023-05-09T13:27:59.563Z,7.50
2023-05-09T13:33:16.591Z,8.47
2023-05-09T13:38:31.017Z,6.27
2023-05-09T13:43:35.055Z,10.30
2023-05-09T13:48:40.136Z,6.70
2023-05-09T13:53:44.572Z,10.23
2023-05-09T13:58:48.355Z,7.03
2023-05-09T14:03:54.161Z,7.00
2023-05-09T14:08:58.529Z,6.87
2023-05-09T14:14:02.296Z,7.70
2023-05-09T14:19:07.263Z,5.53
2023-05-09T14:24:12.568Z,4.87
2023-05-09T14:29:18.228Z,5.43
2023-05-09T14:34:23.097Z,7.47
2023-05-09T14:39:26.551Z,6.07
2023-05-09T14:44:30.429Z,4.87
2023-05-09T14:49:35.743Z,5.13
2023-05-09T14:54:39.483Z,6.97
2023-05-09T14:59:43.015Z,5.90
2023-05-09T15:04:47.771Z,4.63
2023-05-09T15:09:51.447Z,5.03
2023-05-09T15:14:55.584Z,8.60
2023-05-09T15:20:00.485Z,8.23
2023-05-09T15:25:06.211Z,6.87
2023-05-09T15:30:11.399Z,8.43
2023-05-09T15:35:18.458Z,6.73
2023-05-09T15:40:21.878Z,5.17
2023-05-09T15:45:25.315Z,4.20
2023-05-09T15:50:30.178Z,5.13
2023-05-09T15:55:34.126Z,4.53
2023-05-09T16:00:37.974Z,4.20
2023-05-09T16:05:43.104Z,4.60
2023-05-09T16:10:49.274Z,5.57
2023-05-09T16:15:53.973Z,6.10
2023-05-09T16:20:59.681Z,8.37
2023-05-09T16:26:03.438Z,7.37
2023-05-09T16:31:08.260Z,5.43
2023-05-09T16:36:13.573Z,5.03
2023-05-09T16:41:17.477Z,8.67
2023-05-09T16:46:21.047Z,6.87
2023-05-09T16:51:25.911Z,7.60
2023-05-09T16:56:29.662Z,5.77
2023-05-09T17:01:33.566Z,4.57
2023-05-09T17:06:38.562Z,5.07
2023-05-09T17:11:42.092Z,7.30
2023-05-09T17:16:45.966Z,8.37
2023-05-09T17:21:51.329Z,8.93
2023-05-09T17:26:57.780Z,8.57
2023-05-09T17:32:03.493Z,6.20
2023-05-09T17:37:09.214Z,6.63
2023-05-09T17:42:12.908Z,6.47
2023-05-09T17:47:16.662Z,8.47
2023-05-09T17:52:22.897Z,7.17
2023-05-09T17:57:27.156Z,9.90
2023-05-09T18:02:30.800Z,5.77
2023-05-09T22:34:51.488Z,9.80
2023-05-09T22:39:56.305Z,8.80
2023-05-09T22:45:00.608Z,6.53
2023-05-09T22:50:09.564Z,9.03
2023-05-09T22:55:13.628Z,6.13
2023-05-09T23:00:19.024Z,7.43
2023-05-09T23:05:25.634Z,9.97
2023-05-09T23:10:29.894Z,6.97
2023-05-09T23:15:34.301Z,7.67
2023-05-09T23:20:40.271Z,8.60
2023-05-09T23:25:44.662Z,7.67
2023-05-09T23:30:48.735Z,8.00
2023-05-09T23:35:55.634Z,8.47
2023-05-09T23:41:00.597Z,7.07
2023-05-09T23:46:04.707Z,7.80
2023-05-09T23:51:10.856Z,12.13
2023-05-09T23:56:16.048Z,7.30
